Time;durP1;ratioP1;P1;durP2;ratioP2;P2;SDS_P1;SDS_P2;PMS_P1;PMS_P2;Temp;Humidity;BMP_temperature;BMP_pressure;BME280_temperature;BME280_humidity;BME280_pressure;Samples;Min_cycle;Max_cycle;Signal;HPM_P1;HPM_P2
2022/10/22 00:01:53;;;;;;;11.40;4.32;;;13.90;99.90;;;;;;4217081;28;20040;-87
2022/10/22 00:03:56;;;;;;;7.30;4.30;;;14.00;99.90;;;;;;4216933;28;20146;-87
2022/10/22 00:05:57;;;;;;;9.13;4.38;;;13.90;99.90;;;;;;4215919;28;20048;-87
2022/10/22 00:07:57;;;;;;;7.28;3.80;;;13.90;99.90;;;;;;4215072;28;20066;-86
2022/10/22 00:09:58;;;;;;;9.65;4.35;;;13.90;99.90;;;;;;4216691;28;20123;-87
2022/10/22 00:11:59;;;;;;;7.32;3.85;;;13.80;99.90;;;;;;4216031;28;20497;-86
2022/10/22 00:14:00;;;;;;;6.57;4.28;;;13.90;99.90;;;;;;4214226;28;20086;-87
2022/10/22 00:16:02;;;;;;;9.57;4.13;;;13.80;99.90;;;;;;4197304;28;20190;-87
2022/10/22 00:18:03;;;;;;;7.40;3.65;;;13.80;99.90;;;;;;4197281;28;20064;-87
2022/10/22 00:20:04;;;;;;;11.68;4.50;;;13.80;99.90;;;;;;4197920;28;20057;-87
2022/10/22 00:22:06;;;;;;;8.82;4.22;;;13.80;99.90;;;;;;4214983;28;20052;-87
2022/10/22 00:24:08;;;;;;;10.82;4.45;;;13.70;99.90;;;;;;4216827;28;20072;-87
2022/10/22 00:26:09;;;;;;;8.40;4.15;;;13.70;99.90;;;;;;4200277;28;20049;-86
2022/10/22 00:28:10;;;;;;;7.35;3.80;;;13.70;99.90;;;;;;4198744;28;20045;-86
2022/10/22 00:30:11;;;;;;;8.43;3.65;;;13.60;99.90;;;;;;4214972;28;20098;-86
2022/10/22 00:32:12;;;;;;;8.18;4.18;;;13.60;99.90;;;;;;4217457;28;20040;-87
2022/10/22 00:34:17;;;;;;;8.77;4.53;;;13.70;99.90;;;;;;4216389;28;20097;-87
2022/10/22 00:36:18;;;;;;;9.80;4.03;;;13.70;99.90;;;;;;4216429;28;20048;-87
2022/10/22 00:38:20;;;;;;;8.40;4.35;;;13.60;99.90;;;;;;4215242;28;20512;-87
2022/10/22 00:40:25;;;;;;;10.15;4.45;;;13.60;99.90;;;;;;4216113;28;20055;-87
2022/10/22 00:42:29;;;;;;;10.27;3.97;;;13.60;99.90;;;;;;4218523;28;20267;-86
2022/10/22 00:45:14;;;;;;;9.98;4.15;;;13.60;99.90;;;;;;4217371;28;20048;-85
2022/10/22 00:47:17;;;;;;;7.70;4.03;;;14.70;99.90;;;;;;4216399;28;20082;-87
2022/10/22 00:49:17;;;;;;;7.25;3.72;;;13.60;99.90;;;;;;4216177;28;20048;-88
2022/10/22 00:51:20;;;;;;;8.88;3.53;;;13.60;99.90;;;;;;4199677;28;20554;-87
2022/10/22 00:53:43;;;;;;;9.40;3.50;;;13.60;99.90;;;;;;4218384;28;20052;-86
2022/10/22 00:55:47;;;;;;;11.02;3.90;;;13.60;99.90;;;;;;4201397;28;20111;-87
2022/10/22 00:57:49;;;;;;;5.45;3.25;;;13.60;99.90;;;;;;4199753;28;20040;-86
2022/10/22 00:59:49;;;;;;;7.18;3.58;;;13.60;99.90;;;;;;4198482;28;20056;-86
2022/10/22 01:01:52;;;;;;;7.20;3.70;;;13.60;99.90;;;;;;4215847;28;20036;-86
2022/10/22 01:03:53;;;;;;;7.95;3.97;;;13.60;99.90;;;;;;4231980;28;20087;-86
2022/10/22 01:05:59;;;;;;;9.55;4.30;;;13.60;99.90;;;;;;4233396;28;20083;-87
2022/10/22 01:08:00;;;;;;;6.60;3.95;;;13.60;99.90;;;;;;4233713;28;20048;-87
2022/10/22 01:10:16;;;;;;;7.18;3.90;;;13.50;99.90;;;;;;4249790;27;20055;-87
2022/10/22 01:12:53;;;;;;;10.98;3.80;;;13.50;99.90;;;;;;4213398;28;20082;-86
2022/10/22 01:15:15;;;;;;;8.63;3.80;;;13.50;99.90;;;;;;4230514;28;20055;-87
2022/10/22 01:18:04;;;;;;;6.88;4.18;;;13.50;99.90;;;;;;4235140;28;20039;-88
2022/10/22 01:20:37;;;;;;;7.45;3.78;;;13.50;99.90;;;;;;4232716;28;20070;-86
2022/10/22 01:23:20;;;;;;;8.77;4.47;;;13.50;99.90;;;;;;4236365;28;20070;-86
2022/10/22 01:25:41;;;;;;;8.73;4.13;;;13.50;99.90;;;;;;4238211;28;20051;-87
2022/10/22 01:27:44;;;;;;;7.32;4.03;;;13.40;99.90;;;;;;4234261;28;20052;-87
2022/10/22 01:29:52;;;;;;;6.88;3.90;;;13.40;99.90;;;;;;4233607;28;20075;-87
2022/10/22 01:32:01;;;;;;;8.40;3.88;;;13.40;99.90;;;;;;4220801;28;20059;-87
2022/10/22 01:34:03;;;;;;;9.60;3.80;;;13.40;99.90;;;;;;4214187;28;20048;-87
2022/10/22 01:36:04;;;;;;;8.43;3.53;;;13.40;99.90;;;;;;4221676;28;20048;-87
2022/10/22 01:38:18;;;;;;;6.80;3.88;;;13.40;99.90;;;;;;4221365;28;20062;-87
2022/10/22 01:40:20;;;;;;;9.55;3.72;;;13.40;99.90;;;;;;4204728;28;20088;-87
2022/10/22 01:42:22;;;;;;;8.00;3.92;;;12.40;99.90;;;;;;4221075;28;20044;-87
2022/10/22 01:44:34;;;;;;;7.43;3.53;;;13.40;99.90;;;;;;4202215;28;20059;-87
2022/10/22 01:46:36;;;;;;;9.25;4.03;;;13.40;99.90;;;;;;4219340;28;20056;-87
2022/10/22 01:49:14;;;;;;;6.85;3.40;;;13.40;99.90;;;;;;4203231;28;20127;-87
2022/10/22 01:51:26;;;;;;;8.85;3.50;;;13.40;99.90;;;;;;4220552;28;20051;-87
2022/10/22 01:53:31;;;;;;;10.10;3.67;;;13.40;99.90;;;;;;4219850;28;20118;-87
2022/10/22 01:55:52;;;;;;;5.88;3.40;;;13.40;99.90;;;;;;4219282;28;20090;-87
2022/10/22 01:58:05;;;;;;;11.27;3.55;;;13.30;99.90;;;;;;4220372;28;20048;-87
2022/10/22 02:00:12;;;;;;;9.20;3.65;;;13.40;99.90;;;;;;4219123;28;20544;-87
2022/10/22 02:02:16;;;;;;;8.85;3.80;;;13.40;99.90;;;;;;4219984;28;20496;-86
2022/10/22 02:04:46;;;;;;;9.48;4.13;;;13.40;99.90;;;;;;4219021;28;20465;-87
2022/10/22 02:06:50;;;;;;;9.77;4.55;;;13.40;99.90;;;;;;4220410;28;20044;-87
2022/10/22 02:08:53;;;;;;;13.85;3.75;;;13.40;99.90;;;;;;4219447;28;20062;-87
2022/10/22 02:10:56;;;;;;;7.53;3.60;;;13.30;99.90;;;;;;4220324;28;20052;-87
2022/10/22 02:12:59;;;;;;;10.20;3.80;;;13.30;99.90;;;;;;4219230;28;20119;-87
2022/10/22 02:15:02;;;;;;;15.40;4.03;;;13.30;99.90;;;;;;4218752;28;20066;-87
2022/10/22 02:17:04;;;;;;;7.18;3.65;;;13.30;99.90;;;;;;4218299;28;20098;-88
2022/10/22 02:19:17;;;;;;;6.45;3.88;;;13.30;99.90;;;;;;4219086;28;20136;-88
2022/10/22 02:21:17;;;;;;;12.80;3.88;;;13.30;99.90;;;;;;4218409;28;20048;-87
2022/10/22 02:23:19;;;;;;;9.57;3.60;;;13.30;99.90;;;;;;4219278;28;20036;-87
2022/10/22 02:25:22;;;;;;;8.18;3.85;;;13.30;99.90;;;;;;4220211;28;20043;-87
2022/10/22 02:27:31;;;;;;;8.25;3.63;;;13.20;99.90;;;;;;4219075;28;20048;-88
2022/10/22 02:29:39;;;;;;;;;;;13.20;99.90;;;;;;4217325;28;20040;-86
2022/10/22 02:31:44;;;;;;;9.23;3.58;;;13.20;99.90;;;;;;4217329;28;20066;-87
2022/10/22 02:33:49;;;;;;;6.72;3.38;;;13.20;99.90;;;;;;4217725;28;20059;-87
2022/10/22 02:35:51;;;;;;;11.57;4.43;;;13.20;99.90;;;;;;4217877;28;20055;-87
2022/10/22 02:37:54;;;;;;;10.32;3.80;;;13.20;99.90;;;;;;4216748;28;20063;-87
2022/10/22 02:39:55;;;;;;;8.80;3.58;;;13.20;99.90;;;;;;4216480;28;20059;-87
2022/10/22 02:41:56;;;;;;;9.75;3.63;;;13.20;99.90;;;;;;4215656;28;20044;-87
2022/10/22 02:43:57;;;;;;;5.25;3.33;;;13.20;99.90;;;;;;4215977;28;20044;-87
2022/10/22 02:45:58;;;;;;;10.02;4.25;;;13.20;99.90;;;;;;4214857;28;20113;-88
2022/10/22 02:48:00;;;;;;;12.93;5.03;;;13.20;99.90;;;;;;4215575;28;20051;-88
2022/10/22 02:50:01;;;;;;;12.25;4.50;;;13.20;99.90;;;;;;4215039;28;20444;-88
2022/10/22 02:52:03;;;;;;;8.07;4.10;;;13.20;99.90;;;;;;4214934;28;20091;-88
2022/10/22 02:54:04;;;;;;;5.80;3.53;;;13.20;99.90;;;;;;4214604;28;20048;-87
2022/10/22 02:56:05;;;;;;;10.02;3.92;;;13.20;99.90;;;;;;4197808;28;20490;-88
2022/10/22 02:58:06;;;;;;;11.88;4.35;;;13.20;99.90;;;;;;4214732;28;20074;-87
2022/10/22 03:00:08;;;;;;;6.80;3.60;;;13.20;99.90;;;;;;4229645;28;20127;-87
2022/10/22 03:02:10;;;;;;;8.48;3.40;;;13.20;99.90;;;;;;4232721;28;20051;-88
2022/10/22 03:04:10;;;;;;;9.75;3.50;;;13.20;99.90;;;;;;4234188;28;20047;-87
2022/10/22 03:06:11;;;;;;;11.57;4.32;;;13.20;99.90;;;;;;4217239;28;20036;-87
2022/10/22 03:08:12;;;;;;;9.52;3.75;;;13.20;99.90;;;;;;4215488;28;20051;-87
2022/10/22 03:10:12;;;;;;;7.03;3.83;;;13.20;99.90;;;;;;4198799;28;20409;-87
2022/10/22 03:12:14;;;;;;;8.73;4.25;;;13.20;99.90;;;;;;4216303;28;20082;-87
2022/10/22 03:14:15;;;;;;;10.05;3.90;;;13.10;99.90;;;;;;4215398;28;20056;-88
2022/10/22 03:16:16;;;;;;;9.18;4.10;;;13.10;99.90;;;;;;4198606;28;20064;-88
2022/10/22 03:18:17;;;;;;;12.73;4.03;;;13.20;99.90;;;;;;4213486;28;20090;-88
2022/10/22 03:20:17;;;;;;;8.32;4.30;;;13.20;99.90;;;;;;4233430;28;20040;-87
2022/10/22 03:22:27;;;;;;;9.10;3.95;;;13.00;99.90;;;;;;4231791;28;20677;-87
2022/10/22 03:24:35;;;;;;;8.93;4.75;;;13.10;99.90;;;;;;4233735;28;20042;-88
2022/10/22 03:26:37;;;;;;;12.32;4.47;;;13.10;99.90;;;;;;4233308;28;20044;-88
2022/10/22 03:28:39;;;;;;;13.82;3.72;;;13.10;99.90;;;;;;4231734;28;20058;-88
2022/10/22 03:30:40;;;;;;;10.13;3.60;;;13.10;99.90;;;;;;4231765;28;20056;-88
2022/10/22 03:32:41;;;;;;;12.38;3.63;;;13.10;99.90;;;;;;4231531;28;20083;-87
2022/10/22 03:34:42;;;;;;;11.35;4.15;;;13.10;99.90;;;;;;4232591;28;20127;-88
2022/10/22 03:36:44;;;;;;;8.25;3.90;;;13.10;99.90;;;;;;4232603;28;20055;-88
2022/10/22 03:38:45;;;;;;;8.10;3.28;;;13.10;99.90;;;;;;4232440;28;20378;-87
2022/10/22 03:40:46;;;;;;;10.90;3.75;;;13.10;99.90;;;;;;4231548;28;20085;-88
2022/10/22 03:42:47;;;;;;;11.45;4.40;;;13.10;99.90;;;;;;4214403;28;20088;-88
2022/10/22 03:44:48;;;;;;;8.52;3.78;;;13.10;99.90;;;;;;4232853;28;20147;-88
2022/10/22 03:46:49;;;;;;;12.52;3.97;;;13.10;99.90;;;;;;4215022;28;20048;-88
2022/10/22 03:48:50;;;;;;;11.32;3.90;;;13.00;99.90;;;;;;4233836;27;20476;-88
2022/10/22 03:50:50;;;;;;;8.65;3.55;;;13.10;99.90;;;;;;4233933;28;20115;-88
2022/10/22 03:52:52;;;;;;;6.88;4.10;;;13.10;99.90;;;;;;4233251;28;20070;-88
2022/10/22 03:54:53;;;;;;;10.50;4.10;;;13.00;99.90;;;;;;4216453;28;20048;-88
2022/10/22 03:56:53;;;;;;;10.35;4.80;;;13.00;99.90;;;;;;4215177;28;20052;-88
2022/10/22 03:58:56;;;;;;;9.13;4.65;;;13.10;99.90;;;;;;4215263;28;20492;-88
2022/10/22 04:01:07;;;;;;;8.32;3.70;;;13.00;99.90;;;;;;4197487;28;20056;-88
2022/10/22 04:03:09;;;;;;;10.10;4.20;;;13.00;99.90;;;;;;4216522;28;20500;-88
2022/10/22 04:05:10;;;;;;;13.30;4.40;;;13.00;99.90;;;;;;4216121;28;20113;-88
2022/10/22 04:07:10;;;;;;;17.27;4.38;;;13.00;99.90;;;;;;4215134;28;20130;-87
2022/10/22 04:09:11;;;;;;;7.78;3.97;;;13.10;99.90;;;;;;4197055;28;20102;-87
2022/10/22 04:11:13;;;;;;;12.27;4.30;;;12.90;99.90;;;;;;4215070;28;20059;-88
2022/10/22 04:13:14;;;;;;;9.18;4.07;;;12.90;99.90;;;;;;4215624;28;20044;-88
2022/10/22 04:15:15;;;;;;;8.02;4.30;;;11.80;99.90;;;;;;4197547;28;20143;-88
2022/10/22 04:17:16;;;;;;;7.63;4.63;;;12.90;99.90;;;;;;4214575;28;20040;-88
2022/10/22 04:19:17;;;;;;;11.80;3.92;;;12.90;99.90;;;;;;4214621;28;20044;-87
2022/10/22 04:21:18;;;;;;;11.85;4.03;;;12.90;99.90;;;;;;4216386;28;20040;-87
2022/10/22 04:23:19;;;;;;;10.57;5.03;;;12.90;99.90;;;;;;4213805;28;20430;-88
2022/10/22 04:25:20;;;;;;;10.18;4.45;;;12.80;99.90;;;;;;4214502;28;20044;-88
2022/10/22 04:27:21;;;;;;;10.25;3.88;;;12.80;99.90;;;;;;4197204;28;20048;-87
2022/10/22 04:29:22;;;;;;;9.13;4.80;;;12.80;99.90;;;;;;4214156;28;20040;-87
2022/10/22 04:31:24;;;;;;;13.18;4.82;;;12.80;99.90;;;;;;4215568;28;20044;-88
2022/10/22 04:33:25;;;;;;;9.43;3.90;;;12.80;99.90;;;;;;4197387;28;20041;-88
2022/10/22 04:35:26;;;;;;;9.63;4.32;;;12.80;99.90;;;;;;4213906;28;20052;-87
2022/10/22 04:37:27;;;;;;;8.65;4.78;;;12.90;99.90;;;;;;4197630;28;20048;-88
2022/10/22 04:39:28;;;;;;;14.00;5.38;;;12.70;99.90;;;;;;4215692;28;20043;-87
2022/10/22 04:41:32;;;;;;;11.30;4.97;;;12.70;99.90;;;;;;4213771;28;20051;-87
2022/10/22 04:43:33;;;;;;;10.35;4.82;;;12.70;99.90;;;;;;4213898;28;20051;-88
2022/10/22 04:45:35;;;;;;;8.63;4.43;;;12.70;99.90;;;;;;4214311;28;20054;-87
2022/10/22 04:47:35;;;;;;;8.35;4.43;;;12.70;99.90;;;;;;4213934;28;20537;-87
2022/10/22 04:49:36;;;;;;;10.35;4.57;;;12.70;99.90;;;;;;4214187;28;20055;-87
2022/10/22 04:51:37;;;;;;;15.05;5.10;;;11.70;99.90;;;;;;4197349;28;20457;-87
2022/10/22 04:53:40;;;;;;;13.73;5.30;;;12.60;99.90;;;;;;4214840;28;20087;-87
2022/10/22 04:55:42;;;;;;;10.55;4.80;;;12.40;99.90;;;;;;4215332;28;20048;-87
2022/10/22 04:57:43;;;;;;;12.35;4.78;;;11.70;99.90;;;;;;4201233;28;20046;-87
2022/10/22 04:59:44;;;;;;;12.80;5.35;;;11.60;99.90;;;;;;4215343;28;20040;-87
2022/10/22 05:01:45;;;;;;;12.73;4.80;;;12.70;99.90;;;;;;4215575;28;20123;-87
2022/10/22 05:03:48;;;;;;;10.38;4.88;;;12.70;99.90;;;;;;4197317;28;20048;-87
2022/10/22 05:05:49;;;;;;;12.73;4.72;;;12.70;99.90;;;;;;4213146;28;20206;-87
2022/10/22 05:07:50;;;;;;;8.95;5.05;;;12.70;99.90;;;;;;4212719;28;20056;-87
2022/10/22 05:09:52;;;;;;;13.57;5.32;;;12.60;99.90;;;;;;4213905;28;20048;-87
2022/10/22 05:11:53;;;;;;;11.35;5.63;;;12.70;99.90;;;;;;4213136;28;20173;-87
2022/10/22 05:13:58;;;;;;;9.10;4.80;;;12.60;99.90;;;;;;4212680;28;20084;-87
2022/10/22 05:16:01;;;;;;;12.90;5.68;;;12.60;99.90;;;;;;4213152;28;20401;-87
2022/10/22 05:18:01;;;;;;;17.30;5.65;;;12.60;99.90;;;;;;4196151;28;20051;-87
2022/10/22 05:20:03;;;;;;;12.27;4.82;;;12.60;99.90;;;;;;4212332;28;20052;-87
2022/10/22 05:22:05;;;;;;;11.60;5.95;;;12.50;99.90;;;;;;4211822;28;20048;-87
2022/10/22 05:24:06;;;;;;;10.70;4.30;;;12.50;99.90;;;;;;4230901;28;20043;-87
2022/10/22 05:26:08;;;;;;;13.93;6.18;;;12.60;99.90;;;;;;4228833;28;20394;-87
2022/10/22 05:28:09;;;;;;;13.50;5.43;;;12.50;99.90;;;;;;4214745;28;20457;-87
2022/10/22 05:30:10;;;;;;;9.98;4.60;;;12.60;99.90;;;;;;4197025;28;20041;-87
2022/10/22 05:32:11;;;;;;;12.98;5.30;;;12.50;99.90;;;;;;4196955;28;20057;-87
2022/10/22 05:34:12;;;;;;;13.88;6.00;;;12.50;99.90;;;;;;4196703;28;20528;-87
2022/10/22 05:36:15;;;;;;;12.43;4.95;;;12.50;99.90;;;;;;4197008;28;20045;-87
2022/10/22 05:38:17;;;;;;;15.60;5.20;;;12.50;99.90;;;;;;4214476;28;20040;-87
2022/10/22 05:40:18;;;;;;;12.70;5.45;;;12.50;99.90;;;;;;4215269;28;20101;-87
2022/10/22 05:42:19;;;;;;;15.18;5.45;;;12.50;99.90;;;;;;4213965;28;20425;-87
2022/10/22 05:44:19;;;;;;;12.55;5.00;;;12.50;99.90;;;;;;4213580;28;20482;-87
2022/10/22 05:46:22;;;;;;;11.35;5.05;;;12.60;99.90;;;;;;4214242;28;20080;-87
2022/10/22 05:48:22;;;;;;;16.92;5.28;;;12.50;99.90;;;;;;4214196;28;20127;-87
2022/10/22 05:50:23;;;;;;;13.90;4.80;;;12.50;99.90;;;;;;4215401;28;20036;-87
2022/10/22 05:52:24;;;;;;;10.73;5.22;;;12.50;99.90;;;;;;4213529;28;20125;-86
2022/10/22 05:54:26;;;;;;;16.15;5.00;;;12.40;99.90;;;;;;4216099;28;20040;-87
2022/10/22 05:56:28;;;;;;;11.55;5.07;;;12.50;99.90;;;;;;4216396;28;20141;-87
2022/10/22 05:58:30;;;;;;;12.57;5.38;;;12.50;99.90;;;;;;4231844;28;20044;-87
2022/10/22 06:00:33;;;;;;;13.95;5.72;;;12.50;99.90;;;;;;4215710;28;20040;-87
2022/10/22 06:02:35;;;;;;;11.45;4.78;;;12.50;99.90;;;;;;4215943;28;20511;-88
2022/10/22 06:04:35;;;;;;;9.50;4.72;;;12.50;99.90;;;;;;4218087;28;20486;-88
2022/10/22 06:06:43;;;;;;;12.95;5.30;;;12.50;99.90;;;;;;4202708;28;20123;-88
2022/10/22 06:08:48;;;;;;;14.20;5.43;;;12.60;99.90;;;;;;4220591;28;20111;-87
2022/10/22 06:10:49;;;;;;;9.30;4.35;;;12.60;99.90;;;;;;4217792;28;20526;-87
2022/10/22 06:12:50;;;;;;;10.40;4.85;;;12.60;99.90;;;;;;4219354;28;20075;-87
2022/10/22 06:14:52;;;;;;;13.73;5.22;;;12.60;99.90;;;;;;4217578;28;20051;-87
2022/10/22 06:16:55;;;;;;;12.73;4.88;;;12.70;99.90;;;;;;4201438;28;20055;-88
2022/10/22 06:19:02;;;;;;;9.70;4.20;;;12.70;99.90;;;;;;4217657;28;20040;-88
2022/10/22 06:21:07;;;;;;;11.75;4.60;;;12.70;99.90;;;;;;4217669;28;20574;-87
2022/10/22 06:23:08;;;;;;;12.02;4.82;;;12.70;99.90;;;;;;4219292;28;20040;-87
2022/10/22 06:25:09;;;;;;;9.55;5.00;;;12.80;99.90;;;;;;4218602;28;20050;-87
2022/10/22 06:27:10;;;;;;;10.57;4.40;;;12.80;99.90;;;;;;4217318;28;20052;-87
2022/10/22 06:29:11;;;;;;;11.13;4.65;;;12.80;99.90;;;;;;4217707;28;20044;-88
2022/10/22 06:31:11;;;;;;;9.70;4.80;;;12.80;99.90;;;;;;4217063;28;20922;-86
2022/10/22 06:33:12;;;;;;;14.50;5.07;;;12.90;99.90;;;;;;4227915;28;20618;-87
2022/10/22 06:35:13;;;;;;;12.18;5.10;;;12.80;99.90;;;;;;4223733;28;20576;-86
2022/10/22 06:37:15;;;;;;;14.00;5.25;;;12.90;99.90;;;;;;4216857;28;20445;-87
2022/10/22 06:39:17;;;;;;;8.60;5.15;;;12.90;99.90;;;;;;4234454;28;20090;-87
2022/10/22 06:41:18;;;;;;;12.68;4.90;;;12.90;99.90;;;;;;4217987;28;20040;-87
2022/10/22 06:43:18;;;;;;;12.02;4.55;;;13.00;99.90;;;;;;4199381;28;20044;-87
2022/10/22 06:45:20;;;;;;;12.70;4.70;;;13.00;99.90;;;;;;4216508;28;20044;-87
2022/10/22 06:47:21;;;;;;;10.60;4.07;;;13.50;99.90;;;;;;4216696;28;20131;-87
2022/10/22 06:49:23;;;;;;;10.95;4.45;;;13.00;99.90;;;;;;4215992;28;20052;-87
2022/10/22 06:51:24;;;;;;;14.43;4.45;;;13.00;99.90;;;;;;4216405;28;20498;-87
2022/10/22 06:53:25;;;;;;;13.02;4.70;;;13.00;99.90;;;;;;4213959;28;20072;-86
2022/10/22 06:55:26;;;;;;;7.57;4.22;;;13.10;99.90;;;;;;4233238;28;20044;-87
2022/10/22 06:57:26;;;;;;;8.25;4.70;;;13.10;99.90;;;;;;4216455;28;20485;-87
2022/10/22 06:59:28;;;;;;;9.98;4.40;;;13.10;99.90;;;;;;4233715;28;20508;-87
2022/10/22 07:01:33;;;;;;;8.07;4.55;;;13.10;99.90;;;;;;4233650;28;20048;-87
2022/10/22 07:03:34;;;;;;;11.30;4.40;;;13.10;99.90;;;;;;4233660;28;20110;-87
2022/10/22 07:05:35;;;;;;;11.65;4.70;;;13.20;99.90;;;;;;4235155;27;20062;-87
2022/10/22 07:07:37;;;;;;;8.95;4.45;;;13.30;99.90;;;;;;4236470;28;20047;-87
2022/10/22 07:09:38;;;;;;;14.07;4.80;;;13.20;99.90;;;;;;4235707;28;20059;-87
2022/10/22 07:11:41;;;;;;;10.77;4.05;;;13.40;99.90;;;;;;4237182;28;20140;-87
2022/10/22 07:13:45;;;;;;;11.80;5.10;;;13.40;99.90;;;;;;4218756;28;20540;-86
2022/10/22 07:15:53;;;;;;;7.90;4.40;;;13.50;99.90;;;;;;4240602;28;20050;-87
2022/10/22 07:17:54;;;;;;;13.57;5.40;;;13.50;99.90;;;;;;4224910;28;20135;-88
2022/10/22 07:19:55;;;;;;;14.57;5.05;;;13.50;99.90;;;;;;4223895;28;20047;-87
2022/10/22 07:21:56;;;;;;;12.32;3.97;;;13.60;99.90;;;;;;4217624;28;20108;-87
2022/10/22 07:23:59;;;;;;;12.15;4.25;;;13.60;99.90;;;;;;4224322;28;20473;-87
2022/10/22 07:26:05;;;;;;;14.13;3.70;;;13.60;99.90;;;;;;4234472;28;20043;-87
2022/10/22 07:28:07;;;;;;;9.18;4.40;;;13.60;99.90;;;;;;4232014;28;20084;-86
2022/10/22 07:30:09;;;;;;;7.97;3.83;;;13.70;99.90;;;;;;4232713;28;20524;-87
2022/10/22 07:32:10;;;;;;;7.40;3.38;;;13.70;99.90;;;;;;4227924;28;20160;-85
2022/10/22 07:34:11;;;;;;;7.43;3.85;;;13.70;99.90;;;;;;4213909;28;20052;-86
2022/10/22 07:36:16;;;;;;;13.40;4.20;;;13.80;99.90;;;;;;4221549;28;20583;-86
2022/10/22 07:38:17;;;;;;;11.30;3.60;;;13.80;99.90;;;;;;4231414;28;20439;-86
2022/10/22 07:40:19;;;;;;;20.67;4.40;;;13.80;99.90;;;;;;4219317;28;20107;-87
2022/10/22 07:42:19;;;;;;;8.60;3.58;;;12.50;99.90;;;;;;4222390;28;20059;-86
2022/10/22 07:44:20;;;;;;;10.00;3.33;;;13.80;99.90;;;;;;4215324;28;20036;-87
2022/10/22 07:46:22;;;;;;;10.23;3.53;;;13.80;99.90;;;;;;4233249;28;20043;-87
2022/10/22 07:48:23;;;;;;;6.75;3.33;;;13.90;99.90;;;;;;4227560;28;20044;-86
2022/10/22 07:50:24;;;;;;;9.40;3.67;;;13.90;99.90;;;;;;4216543;28;20050;-86
2022/10/22 07:52:25;;;;;;;8.43;4.22;;;13.90;99.90;;;;;;4216859;28;20048;-86
2022/10/22 07:54:26;;;;;;;13.48;3.95;;;13.90;99.90;;;;;;4216160;28;20123;-87
2022/10/22 07:56:28;;;;;;;9.00;3.53;;;13.90;99.90;;;;;;4221546;28;20048;-86
2022/10/22 07:58:30;;;;;;;9.35;3.47;;;14.00;99.90;;;;;;4249645;28;20041;-86
2022/10/22 08:00:32;;;;;;;8.68;3.47;;;12.80;99.90;;;;;;4249430;28;20091;-86
2022/10/22 08:02:35;;;;;;;8.93;4.22;;;13.90;99.90;;;;;;4248505;28;20161;-85
2022/10/22 08:04:36;;;;;;;11.57;2.90;;;13.90;99.90;;;;;;4246512;28;20051;-86
2022/10/22 08:06:37;;;;;;;6.57;3.50;;;14.00;99.90;;;;;;4246101;28;20143;-87
2022/10/22 08:08:38;;;;;;;6.20;3.47;;;14.00;99.90;;;;;;4243377;28;20051;-88
2022/10/22 08:10:40;;;;;;;11.93;4.40;;;14.00;99.90;;;;;;4235501;28;20043;-89
2022/10/22 08:12:42;;;;;;;6.82;3.53;;;14.00;99.90;;;;;;4233002;28;20414;-89
2022/10/22 08:14:43;;;;;;;7.80;3.60;;;13.90;99.90;;;;;;4233347;28;20050;-88
2022/10/22 08:16:44;;;;;;;12.57;3.85;;;14.00;99.90;;;;;;4233897;28;20082;-89
2022/10/22 08:18:45;;;;;;;15.20;3.78;;;14.00;99.90;;;;;;4235546;28;20114;-89
2022/10/22 08:20:45;;;;;;;9.88;3.40;;;14.00;99.90;;;;;;4232542;28;20505;-89
2022/10/22 08:22:46;;;;;;;9.88;3.88;;;14.00;99.90;;;;;;4215545;28;20044;-88
2022/10/22 08:24:49;;;;;;;11.10;3.72;;;14.00;99.90;;;;;;4209859;28;20125;-86
2022/10/22 08:26:51;;;;;;;8.20;3.33;;;14.00;99.90;;;;;;4196864;28;20048;-87
2022/10/22 08:28:51;;;;;;;11.90;3.65;;;14.00;99.90;;;;;;4215405;28;20048;-89
2022/10/22 08:30:52;;;;;;;8.40;3.15;;;14.00;99.90;;;;;;4214408;28;20179;-88
2022/10/22 08:32:53;;;;;;;8.38;3.03;;;14.10;99.90;;;;;;4198279;28;20506;-90
2022/10/22 08:34:55;;;;;;;13.35;3.42;;;14.10;99.90;;;;;;4232292;28;20040;-89
2022/10/22 08:36:56;;;;;;;10.02;3.30;;;14.10;99.90;;;;;;4232831;28;20043;-87
2022/10/22 08:38:57;;;;;;;9.57;3.25;;;14.20;99.90;;;;;;4232894;28;20042;-86
2022/10/22 08:41:08;;;;;;;8.60;2.85;;;14.30;99.90;;;;;;4233071;28;20119;-87
2022/10/22 08:43:33;;;;;;;12.40;3.13;;;14.60;99.90;;;;;;4216716;28;20040;-89
2022/10/22 08:45:59;;;;;;;13.02;3.83;;;15.20;99.90;;;;;;4216456;28;20081;-89
2022/10/22 08:48:31;;;;;;;10.43;3.55;;;15.90;99.90;;;;;;4214765;28;20201;-88
2022/10/22 08:50:37;;;;;;;9.70;3.20;;;16.00;99.90;;;;;;4232122;28;20134;-87
2022/10/22 08:52:40;;;;;;;6.80;2.75;;;16.30;99.90;;;;;;4232377;28;20059;-89
2022/10/22 08:54:57;;;;;;;5.55;2.50;;;16.60;99.90;;;;;;4236916;28;20096;-88
2022/10/22 08:57:16;;;;;;;10.82;2.83;;;18.10;99.90;;;;;;4231041;28;20089;-88
2022/10/22 08:59:24;;;;;;;10.18;2.53;;;17.60;99.90;;;;;;4215771;28;20051;-88
2022/10/22 09:01:38;;;;;;;12.30;3.33;;;18.10;99.90;;;;;;4231822;28;20055;-88
2022/10/22 09:03:57;;;;;;;8.43;2.92;;;18.40;99.90;;;;;;4232158;28;20047;-88
2022/10/22 09:06:18;;;;;;;13.95;3.33;;;18.50;99.90;;;;;;4231971;28;20436;-88
2022/10/22 09:08:20;;;;;;;11.23;2.45;;;19.00;99.90;;;;;;4210281;28;20126;-87
2022/10/22 09:10:26;;;;;;;7.20;2.60;;;19.40;99.90;;;;;;4216014;28;20059;-89
2022/10/22 09:12:27;;;;;;;4.22;1.80;;;20.10;99.90;;;;;;4214441;28;20051;-88
2022/10/22 09:14:29;;;;;;;7.60;3.38;;;20.80;99.90;;;;;;4213664;28;20418;-88
2022/10/22 09:16:50;;;;;;;7.70;2.78;;;21.20;99.90;;;;;;4216239;28;20040;-88
2022/10/22 09:19:16;;;;;;;6.38;2.42;;;21.60;99.90;;;;;;4214163;28;20077;-88
2022/10/22 09:21:32;;;;;;;7.70;2.30;;;21.30;99.90;;;;;;4214861;28;20052;-87
2022/10/22 09:23:43;;;;;;;8.73;2.10;;;21.40;99.90;;;;;;4215988;28;20042;-87
2022/10/22 09:25:45;;;;;;;7.68;2.80;;;21.50;99.90;;;;;;4215339;28;20044;-87
2022/10/22 09:27:47;;;;;;;10.18;2.53;;;21.50;99.90;;;;;;4214024;28;20599;-88
2022/10/22 09:29:48;;;;;;;7.45;2.22;;;21.30;99.90;;;;;;4216590;28;20048;-88
2022/10/22 09:31:49;;;;;;;6.82;1.73;;;21.20;99.90;;;;;;4216755;28;20405;-88
2022/10/22 09:33:51;;;;;;;6.80;1.60;;;20.90;99.90;;;;;;4216604;28;20046;-87
2022/10/22 09:35:57;;;;;;;13.00;1.95;;;20.90;99.90;;;;;;4215970;28;20494;-88
2022/10/22 09:38:06;;;;;;;8.45;1.70;;;20.80;99.90;;;;;;4216345;28;20040;-88
2022/10/22 09:40:13;;;;;;;8.30;2.50;;;20.60;99.90;;;;;;4218852;28;20072;-88
2022/10/22 09:42:17;;;;;;;5.82;2.22;;;20.40;99.90;;;;;;4200719;28;20048;-88
2022/10/22 09:44:19;;;;;;;7.47;2.13;;;19.90;99.90;;;;;;4218248;28;20051;-89
2022/10/22 09:46:23;;;;;;;7.18;2.00;;;19.90;99.90;;;;;;4217087;28;20036;-88
2022/10/22 09:48:33;;;;;;;10.05;2.63;;;19.70;99.90;;;;;;4217061;28;20044;-88
2022/10/22 09:50:53;;;;;;;12.30;2.25;;;19.50;99.90;;;;;;4199018;28;20048;-88
2022/10/22 09:53:10;;;;;;;9.27;2.22;;;19.00;99.90;;;;;;4217656;28;20051;-89
2022/10/22 09:55:17;;;;;;;6.55;2.33;;;18.60;99.90;;;;;;4216937;28;20044;-88
2022/10/22 09:57:21;;;;;;;10.30;3.30;;;18.20;99.90;;;;;;4215844;28;20444;-88
2022/10/22 09:59:31;;;;;;;9.80;2.10;;;18.10;99.90;;;;;;4215296;28;20048;-87
2022/10/22 10:01:34;;;;;;;8.38;2.05;;;17.80;99.90;;;;;;4229046;28;20051;-89
2022/10/22 10:03:36;;;;;;;10.52;3.22;;;17.70;99.90;;;;;;4235862;28;20123;-89
2022/10/22 10:05:40;;;;;;;7.57;2.10;;;17.60;99.90;;;;;;4233685;28;20047;-88
2022/10/22 10:07:40;;;;;;;8.57;2.10;;;17.60;99.90;;;;;;4234768;28;20123;-88
2022/10/22 10:09:41;;;;;;;4.55;2.17;;;17.50;99.90;;;;;;4233741;28;20058;-88
2022/10/22 10:12:07;;;;;;;7.53;2.67;;;17.40;99.90;;;;;;4234809;28;20051;-89
2022/10/22 10:14:42;;;;;;;7.20;2.08;;;17.40;99.90;;;;;;4233398;28;20055;-88
2022/10/22 10:17:12;;;;;;;8.95;2.30;;;17.40;99.90;;;;;;4233872;28;20079;-89
2022/10/22 10:19:16;;;;;;;12.32;2.10;;;17.30;99.90;;;;;;4221312;28;20103;-89
2022/10/22 10:21:34;;;;;;;10.05;2.15;;;17.20;99.90;;;;;;4217033;28;20044;-88
2022/10/22 10:23:40;;;;;;;8.50;2.97;;;17.10;99.90;;;;;;4217082;28;20093;-88
2022/10/22 10:25:52;;;;;;;9.50;2.60;;;17.10;99.90;;;;;;4218916;28;20054;-88
2022/10/22 10:28:06;;;;;;;10.55;3.42;;;17.00;99.90;;;;;;4217828;28;20054;-87
2022/10/22 10:30:10;;;;;;;6.68;2.45;;;17.00;99.90;;;;;;4217288;28;20063;-87
2022/10/22 10:32:31;;;;;;;7.30;2.70;;;16.90;99.90;;;;;;4203434;28;20400;-86
2022/10/22 10:34:35;;;;;;;8.15;3.03;;;16.80;99.90;;;;;;4233298;28;20055;-86
2022/10/22 10:36:44;;;;;;;6.18;2.28;;;16.80;99.90;;;;;;4216485;28;20043;-86
2022/10/22 10:38:44;;;;;;;;;;;16.80;99.90;;;;;;4233909;28;20047;-86
2022/10/22 10:40:55;;;;;;;9.90;2.30;;;16.80;99.90;;;;;;4233131;28;20002;-87
2022/10/22 10:43:22;;;;;;;8.85;2.38;;;16.90;99.90;;;;;;4233792;28;20047;-86
2022/10/22 10:45:46;;;;;;;12.00;3.85;;;16.90;99.90;;;;;;4196651;28;20509;-86
2022/10/22 10:48:18;;;;;;;6.63;2.67;;;16.80;99.90;;;;;;4215725;28;20047;-87